sensor_id;sensor_type;location;lat;lon;timestamp;P1;durP1;ratioP1;P2;durP2;ratioP2
19621;SDS011;9958;33.196;-97.114;2022-12-29T00:01:10;4.05;;;1.85;;
19621;SDS011;9958;33.196;-97.114;2022-12-29T00:03:39;5.47;;;1.48;;
19621;SDS011;9958;33.196;-97.114;2022-12-29T00:06:12;2.38;;;1.70;;
19621;SDS011;9958;33.196;-97.114;2022-12-29T00:08:41;2.60;;;1.60;;
19621;SDS011;9958;33.196;-97.114;2022-12-29T00:11:10;4.03;;;2.13;;
19621;SDS011;9958;33.196;-97.114;2022-12-29T00:13:39;2.80;;;2.00;;
19621;SDS011;9958;33.196;-97.114;2022-12-29T00:16:27;3.38;;;1.90;;
19621;SDS011;9958;33.196;-97.114;2022-12-29T00:18:55;5.38;;;1.73;;
19621;SDS011;9958;33.196;-97.114;2022-12-29T00:21:24;3.75;;;1.80;;
19621;SDS011;9958;33.196;-97.114;2022-12-29T00:24:12;2.20;;;1.70;;
19621;SDS011;9958;33.196;-97.114;2022-12-29T00:26:58;3.35;;;1.80;;
19621;SDS011;9958;33.196;-97.114;2022-12-29T00:29:57;2.75;;;1.65;;
19621;SDS011;9958;33.196;-97.114;2022-12-29T00:32:53;3.03;;;1.85;;
19621;SDS011;9958;33.196;-97.114;2022-12-29T00:35:39;4.45;;;1.45;;
19621;SDS011;9958;33.196;-97.114;2022-12-29T00:38:11;2.00;;;1.63;;
19621;SDS011;9958;33.196;-97.114;2022-12-29T00:40:57;3.50;;;1.55;;
19621;SDS011;9958;33.196;-97.114;2022-12-29T00:43:43;2.60;;;1.73;;
19621;SDS011;9958;33.196;-97.114;2022-12-29T00:46:28;2.05;;;1.63;;
19621;SDS011;9958;33.196;-97.114;2022-12-29T00:49:00;4.05;;;1.70;;
19621;SDS011;9958;33.196;-97.114;2022-12-29T00:51:48;3.35;;;1.55;;
19621;SDS011;9958;33.196;-97.114;2022-12-29T00:54:17;2.70;;;2.13;;
19621;SDS011;9958;33.196;-97.114;2022-12-29T00:56:46;3.42;;;1.50;;
19621;SDS011;9958;33.196;-97.114;2022-12-29T00:59:15;4.25;;;1.67;;
19621;SDS011;9958;33.196;-97.114;2022-12-29T01:01:43;3.47;;;1.80;;
19621;SDS011;9958;33.196;-97.114;2022-12-29T01:04:14;3.47;;;1.63;;
19621;SDS011;9958;33.196;-97.114;2022-12-29T01:06:42;3.00;;;1.55;;
19621;SDS011;9958;33.196;-97.114;2022-12-29T01:09:11;2.03;;;1.63;;
19621;SDS011;9958;33.196;-97.114;2022-12-29T01:11:56;4.65;;;1.70;;
19621;SDS011;9958;33.196;-97.114;2022-12-29T01:14:24;1.52;;;1.30;;
19621;SDS011;9958;33.196;-97.114;2022-12-29T01:16:53;2.92;;;2.22;;
19621;SDS011;9958;33.196;-97.114;2022-12-29T01:19:24;2.38;;;1.92;;
19621;SDS011;9958;33.196;-97.114;2022-12-29T01:21:55;1.55;;;1.45;;
19621;SDS011;9958;33.196;-97.114;2022-12-29T01:24:23;2.45;;;1.73;;
19621;SDS011;9958;33.196;-97.114;2022-12-29T01:26:52;5.70;;;1.67;;
19621;SDS011;9958;33.196;-97.114;2022-12-29T01:29:21;3.75;;;1.40;;
19621;SDS011;9958;33.196;-97.114;2022-12-29T01:31:52;1.75;;;1.50;;
19621;SDS011;9958;33.196;-97.114;2022-12-29T01:34:21;1.58;;;1.30;;
19621;SDS011;9958;33.196;-97.114;2022-12-29T01:36:52;2.00;;;1.70;;
19621;SDS011;9958;33.196;-97.114;2022-12-29T01:39:21;2.13;;;1.50;;
19621;SDS011;9958;33.196;-97.114;2022-12-29T01:41:49;1.75;;;1.50;;
19621;SDS011;9958;33.196;-97.114;2022-12-29T01:47:24;2.17;;;1.33;;
19621;SDS011;9958;33.196;-97.114;2022-12-29T01:49:58;1.90;;;1.45;;
19621;SDS011;9958;33.196;-97.114;2022-12-29T01:52:33;3.28;;;1.42;;
19621;SDS011;9958;33.196;-97.114;2022-12-29T01:55:05;2.33;;;1.80;;
19621;SDS011;9958;33.196;-97.114;2022-12-29T01:57:36;2.95;;;1.80;;
19621;SDS011;9958;33.196;-97.114;2022-12-29T02:00:08;2.90;;;1.60;;
19621;SDS011;9958;33.196;-97.114;2022-12-29T02:02:38;1.70;;;1.60;;
19621;SDS011;9958;33.196;-97.114;2022-12-29T02:05:09;3.83;;;1.90;;
19621;SDS011;9958;33.196;-97.114;2022-12-29T02:07:42;4.53;;;1.95;;
19621;SDS011;9958;33.196;-97.114;2022-12-29T02:10:12;3.25;;;1.80;;
19621;SDS011;9958;33.196;-97.114;2022-12-29T02:12:40;1.60;;;1.40;;
19621;SDS011;9958;33.196;-97.114;2022-12-29T02:15:09;2.20;;;1.63;;
19621;SDS011;9958;33.196;-97.114;2022-12-29T02:17:43;2.65;;;1.90;;
19621;SDS011;9958;33.196;-97.114;2022-12-29T02:20:32;2.28;;;1.60;;
19621;SDS011;9958;33.196;-97.114;2022-12-29T02:23:39;3.70;;;2.05;;
19621;SDS011;9958;33.196;-97.114;2022-12-29T02:26:28;3.45;;;1.65;;
19621;SDS011;9958;33.196;-97.114;2022-12-29T02:29:22;3.00;;;1.77;;
19621;SDS011;9958;33.196;-97.114;2022-12-29T02:32:10;2.20;;;1.70;;
19621;SDS011;9958;33.196;-97.114;2022-12-29T02:34:47;3.47;;;1.85;;
19621;SDS011;9958;33.196;-97.114;2022-12-29T02:37:25;2.13;;;1.55;;
19621;SDS011;9958;33.196;-97.114;2022-12-29T02:40:00;2.58;;;1.83;;
19621;SDS011;9958;33.196;-97.114;2022-12-29T02:42:34;2.30;;;1.73;;
19621;SDS011;9958;33.196;-97.114;2022-12-29T02:45:12;3.17;;;1.60;;
19621;SDS011;9958;33.196;-97.114;2022-12-29T02:47:47;3.05;;;1.65;;
19621;SDS011;9958;33.196;-97.114;2022-12-29T02:50:20;4.75;;;1.98;;
19621;SDS011;9958;33.196;-97.114;2022-12-29T02:52:54;3.47;;;1.55;;
19621;SDS011;9958;33.196;-97.114;2022-12-29T02:55:26;4.45;;;1.73;;
19621;SDS011;9958;33.196;-97.114;2022-12-29T02:58:09;3.65;;;1.80;;
19621;SDS011;9958;33.196;-97.114;2022-12-29T03:00:48;3.28;;;1.83;;
19621;SDS011;9958;33.196;-97.114;2022-12-29T03:03:36;2.08;;;1.65;;
19621;SDS011;9958;33.196;-97.114;2022-12-29T03:06:20;3.22;;;1.77;;
19621;SDS011;9958;33.196;-97.114;2022-12-29T03:08:59;2.13;;;1.60;;
19621;SDS011;9958;33.196;-97.114;2022-12-29T03:11:37;3.00;;;1.80;;
19621;SDS011;9958;33.196;-97.114;2022-12-29T03:14:29;3.25;;;2.00;;
19621;SDS011;9958;33.196;-97.114;2022-12-29T03:17:23;2.40;;;1.75;;
19621;SDS011;9958;33.196;-97.114;2022-12-29T03:19:59;3.03;;;1.77;;
19621;SDS011;9958;33.196;-97.114;2022-12-29T03:22:34;2.53;;;1.70;;
19621;SDS011;9958;33.196;-97.114;2022-12-29T03:25:07;2.60;;;1.90;;
19621;SDS011;9958;33.196;-97.114;2022-12-29T03:27:40;6.70;;;2.10;;
19621;SDS011;9958;33.196;-97.114;2022-12-29T03:30:11;2.95;;;1.55;;
19621;SDS011;9958;33.196;-97.114;2022-12-29T03:32:42;2.42;;;1.70;;
19621;SDS011;9958;33.196;-97.114;2022-12-29T03:35:17;2.88;;;2.00;;
19621;SDS011;9958;33.196;-97.114;2022-12-29T03:37:50;2.17;;;1.67;;
19621;SDS011;9958;33.196;-97.114;2022-12-29T03:40:22;2.10;;;1.75;;
19621;SDS011;9958;33.196;-97.114;2022-12-29T03:42:53;2.70;;;1.45;;
19621;SDS011;9958;33.196;-97.114;2022-12-29T03:45:23;3.63;;;1.80;;
19621;SDS011;9958;33.196;-97.114;2022-12-29T03:47:52;1.98;;;1.52;;
19621;SDS011;9958;33.196;-97.114;2022-12-29T03:50:22;2.53;;;1.70;;
19621;SDS011;9958;33.196;-97.114;2022-12-29T03:52:51;1.77;;;1.67;;
19621;SDS011;9958;33.196;-97.114;2022-12-29T03:55:19;2.08;;;1.70;;
19621;SDS011;9958;33.196;-97.114;2022-12-29T03:57:48;2.38;;;1.85;;
19621;SDS011;9958;33.196;-97.114;2022-12-29T04:00:16;5.20;;;1.80;;
19621;SDS011;9958;33.196;-97.114;2022-12-29T04:02:45;2.35;;;1.30;;
19621;SDS011;9958;33.196;-97.114;2022-12-29T04:05:13;3.42;;;1.80;;
19621;SDS011;9958;33.196;-97.114;2022-12-29T04:07:43;4.40;;;2.08;;
19621;SDS011;9958;33.196;-97.114;2022-12-29T04:10:11;3.75;;;2.00;;
19621;SDS011;9958;33.196;-97.114;2022-12-29T04:12:40;1.92;;;1.60;;
19621;SDS011;9958;33.196;-97.114;2022-12-29T04:15:09;1.65;;;1.55;;
19621;SDS011;9958;33.196;-97.114;2022-12-29T04:17:37;1.52;;;1.42;;
19621;SDS011;9958;33.196;-97.114;2022-12-29T04:20:06;2.47;;;1.50;;
19621;SDS011;9958;33.196;-97.114;2022-12-29T04:22:58;1.70;;;1.60;;
19621;SDS011;9958;33.196;-97.114;2022-12-29T04:25:27;2.03;;;1.48;;
19621;SDS011;9958;33.196;-97.114;2022-12-29T04:27:57;2.47;;;1.70;;
19621;SDS011;9958;33.196;-97.114;2022-12-29T04:30:25;1.67;;;1.40;;
19621;SDS011;9958;33.196;-97.114;2022-12-29T04:32:53;1.65;;;1.55;;
19621;SDS011;9958;33.196;-97.114;2022-12-29T04:35:22;5.20;;;1.80;;
19621;SDS011;9958;33.196;-97.114;2022-12-29T04:37:50;1.48;;;1.38;;
19621;SDS011;9958;33.196;-97.114;2022-12-29T04:40:20;1.63;;;1.50;;
19621;SDS011;9958;33.196;-97.114;2022-12-29T04:42:49;4.78;;;1.95;;
19621;SDS011;9958;33.196;-97.114;2022-12-29T04:45:18;2.40;;;1.40;;
19621;SDS011;9958;33.196;-97.114;2022-12-29T04:47:46;4.22;;;1.63;;
19621;SDS011;9958;33.196;-97.114;2022-12-29T04:50:15;2.85;;;1.35;;
19621;SDS011;9958;33.196;-97.114;2022-12-29T04:52:43;3.08;;;1.67;;
19621;SDS011;9958;33.196;-97.114;2022-12-29T04:55:12;1.60;;;1.50;;
19621;SDS011;9958;33.196;-97.114;2022-12-29T04:57:42;2.67;;;1.77;;
19621;SDS011;9958;33.196;-97.114;2022-12-29T05:00:11;2.20;;;1.55;;
19621;SDS011;9958;33.196;-97.114;2022-12-29T05:02:40;2.95;;;1.70;;
19621;SDS011;9958;33.196;-97.114;2022-12-29T05:05:08;1.60;;;1.50;;
19621;SDS011;9958;33.196;-97.114;2022-12-29T05:07:37;2.58;;;1.70;;
19621;SDS011;9958;33.196;-97.114;2022-12-29T05:10:06;1.98;;;1.70;;
19621;SDS011;9958;33.196;-97.114;2022-12-29T05:12:36;5.18;;;1.70;;
19621;SDS011;9958;33.196;-97.114;2022-12-29T05:15:07;3.33;;;1.75;;
19621;SDS011;9958;33.196;-97.114;2022-12-29T05:17:36;5.68;;;1.92;;
19621;SDS011;9958;33.196;-97.114;2022-12-29T05:20:05;2.28;;;1.38;;
19621;SDS011;9958;33.196;-97.114;2022-12-29T05:22:35;2.38;;;1.50;;
19621;SDS011;9958;33.196;-97.114;2022-12-29T05:25:04;3.10;;;1.92;;
19621;SDS011;9958;33.196;-97.114;2022-12-29T05:27:32;5.07;;;1.77;;
19621;SDS011;9958;33.196;-97.114;2022-12-29T05:30:01;2.55;;;1.40;;
19621;SDS011;9958;33.196;-97.114;2022-12-29T05:32:31;1.83;;;1.38;;
19621;SDS011;9958;33.196;-97.114;2022-12-29T05:35:00;1.65;;;1.55;;
19621;SDS011;9958;33.196;-97.114;2022-12-29T05:37:28;4.05;;;1.40;;
19621;SDS011;9958;33.196;-97.114;2022-12-29T05:39:57;3.50;;;1.95;;
19621;SDS011;9958;33.196;-97.114;2022-12-29T05:42:25;2.22;;;1.40;;
19621;SDS011;9958;33.196;-97.114;2022-12-29T05:44:53;1.52;;;1.40;;
19621;SDS011;9958;33.196;-97.114;2022-12-29T05:47:22;2.05;;;1.50;;
19621;SDS011;9958;33.196;-97.114;2022-12-29T05:49:52;3.28;;;1.35;;
19621;SDS011;9958;33.196;-97.114;2022-12-29T05:52:20;6.57;;;1.67;;
19621;SDS011;9958;33.196;-97.114;2022-12-29T05:54:48;2.05;;;1.67;;
19621;SDS011;9958;33.196;-97.114;2022-12-29T05:57:17;3.42;;;1.73;;
19621;SDS011;9958;33.196;-97.114;2022-12-29T05:59:45;1.55;;;1.45;;
19621;SDS011;9958;33.196;-97.114;2022-12-29T06:02:13;1.95;;;1.52;;
19621;SDS011;9958;33.196;-97.114;2022-12-29T06:04:42;3.28;;;1.60;;
19621;SDS011;9958;33.196;-97.114;2022-12-29T06:07:12;2.22;;;1.50;;
19621;SDS011;9958;33.196;-97.114;2022-12-29T06:09:40;3.85;;;1.55;;
19621;SDS011;9958;33.196;-97.114;2022-12-29T06:12:08;1.90;;;1.50;;
19621;SDS011;9958;33.196;-97.114;2022-12-29T06:14:37;2.13;;;1.42;;
19621;SDS011;9958;33.196;-97.114;2022-12-29T06:17:05;2.53;;;1.60;;
19621;SDS011;9958;33.196;-97.114;2022-12-29T06:19:34;2.58;;;1.33;;
19621;SDS011;9958;33.196;-97.114;2022-12-29T06:22:02;4.45;;;1.40;;
19621;SDS011;9958;33.196;-97.114;2022-12-29T06:24:32;3.97;;;1.80;;
19621;SDS011;9958;33.196;-97.114;2022-12-29T06:27:01;3.15;;;1.45;;
19621;SDS011;9958;33.196;-97.114;2022-12-29T06:29:29;3.45;;;1.40;;
19621;SDS011;9958;33.196;-97.114;2022-12-29T06:31:57;1.90;;;1.65;;
19621;SDS011;9958;33.196;-97.114;2022-12-29T06:34:26;3.35;;;1.50;;
19621;SDS011;9958;33.196;-97.114;2022-12-29T06:36:54;3.90;;;1.40;;
19621;SDS011;9958;33.196;-97.114;2022-12-29T06:39:22;3.03;;;1.50;;
19621;SDS011;9958;33.196;-97.114;2022-12-29T06:41:53;3.20;;;1.50;;
19621;SDS011;9958;33.196;-97.114;2022-12-29T06:44:21;3.85;;;1.70;;
19621;SDS011;9958;33.196;-97.114;2022-12-29T06:46:50;2.00;;;1.40;;
19621;SDS011;9958;33.196;-97.114;2022-12-29T06:49:18;2.20;;;1.20;;
19621;SDS011;9958;33.196;-97.114;2022-12-29T06:51:47;1.40;;;1.27;;
19621;SDS011;9958;33.196;-97.114;2022-12-29T06:54:15;2.53;;;1.60;;
19621;SDS011;9958;33.196;-97.114;2022-12-29T06:56:44;1.80;;;1.38;;
19621;SDS011;9958;33.196;-97.114;2022-12-29T06:59:14;5.78;;;1.55;;
19621;SDS011;9958;33.196;-97.114;2022-12-29T07:01:42;3.67;;;1.80;;
19621;SDS011;9958;33.196;-97.114;2022-12-29T07:04:10;2.63;;;1.52;;
19621;SDS011;9958;33.196;-97.114;2022-12-29T07:06:39;3.58;;;1.80;;
19621;SDS011;9958;33.196;-97.114;2022-12-29T07:09:08;2.03;;;1.55;;
19621;SDS011;9958;33.196;-97.114;2022-12-29T07:11:36;5.97;;;1.70;;
19621;SDS011;9958;33.196;-97.114;2022-12-29T07:14:05;2.65;;;1.75;;
19621;SDS011;9958;33.196;-97.114;2022-12-29T07:16:35;2.60;;;1.73;;
19621;SDS011;9958;33.196;-97.114;2022-12-29T07:19:03;2.58;;;1.80;;
19621;SDS011;9958;33.196;-97.114;2022-12-29T07:21:32;2.90;;;1.60;;
19621;SDS011;9958;33.196;-97.114;2022-12-29T07:24:00;1.58;;;1.48;;
19621;SDS011;9958;33.196;-97.114;2022-12-29T07:26:28;3.67;;;1.63;;
19621;SDS011;9958;33.196;-97.114;2022-12-29T07:28:57;3.55;;;1.77;;
19621;SDS011;9958;33.196;-97.114;2022-12-29T07:31:27;4.07;;;1.73;;
19621;SDS011;9958;33.196;-97.114;2022-12-29T07:33:57;6.68;;;2.13;;
19621;SDS011;9958;33.196;-97.114;2022-12-29T07:36:25;4.20;;;1.83;;
19621;SDS011;9958;33.196;-97.114;2022-12-29T07:38:53;2.58;;;1.67;;
19621;SDS011;9958;33.196;-97.114;2022-12-29T07:41:22;4.32;;;1.77;;
19621;SDS011;9958;33.196;-97.114;2022-12-29T07:43:50;4.20;;;1.70;;
19621;SDS011;9958;33.196;-97.114;2022-12-29T07:46:18;7.32;;;1.90;;
19621;SDS011;9958;33.196;-97.114;2022-12-29T07:48:47;2.58;;;1.80;;
19621;SDS011;9958;33.196;-97.114;2022-12-29T07:51:17;3.25;;;1.60;;
19621;SDS011;9958;33.196;-97.114;2022-12-29T07:53:45;4.80;;;1.92;;
19621;SDS011;9958;33.196;-97.114;2022-12-29T07:56:13;2.33;;;1.65;;
19621;SDS011;9958;33.196;-97.114;2022-12-29T07:58:42;4.07;;;1.70;;
19621;SDS011;9958;33.196;-97.114;2022-12-29T08:01:10;4.10;;;1.70;;
19621;SDS011;9958;33.196;-97.114;2022-12-29T08:03:39;2.90;;;1.88;;
19621;SDS011;9958;33.196;-97.114;2022-12-29T08:06:09;1.95;;;1.50;;
19621;SDS011;9958;33.196;-97.114;2022-12-29T08:08:39;2.20;;;1.75;;
19621;SDS011;9958;33.196;-97.114;2022-12-29T08:11:07;4.95;;;1.63;;
19621;SDS011;9958;33.196;-97.114;2022-12-29T08:13:36;1.48;;;1.38;;
19621;SDS011;9958;33.196;-97.114;2022-12-29T08:16:04;3.40;;;1.80;;
19621;SDS011;9958;33.196;-97.114;2022-12-29T08:18:33;2.67;;;1.60;;
19621;SDS011;9958;33.196;-97.114;2022-12-29T08:21:02;1.95;;;1.52;;
19621;SDS011;9958;33.196;-97.114;2022-12-29T08:23:31;1.95;;;1.42;;
19621;SDS011;9958;33.196;-97.114;2022-12-29T08:26:02;4.35;;;2.35;;
19621;SDS011;9958;33.196;-97.114;2022-12-29T08:28:32;4.30;;;1.92;;
19621;SDS011;9958;33.196;-97.114;2022-12-29T08:31:00;2.90;;;1.63;;
19621;SDS011;9958;33.196;-97.114;2022-12-29T08:33:29;3.22;;;2.10;;
19621;SDS011;9958;33.196;-97.114;2022-12-29T08:36:01;5.05;;;1.98;;
19621;SDS011;9958;33.196;-97.114;2022-12-29T08:38:30;2.80;;;1.90;;
19621;SDS011;9958;33.196;-97.114;2022-12-29T08:40:58;4.45;;;2.05;;
19621;SDS011;9958;33.196;-97.114;2022-12-29T08:43:29;2.65;;;1.88;;
19621;SDS011;9958;33.196;-97.114;2022-12-29T08:45:57;3.92;;;1.77;;
19621;SDS011;9958;33.196;-97.114;2022-12-29T08:48:26;4.93;;;1.88;;
19621;SDS011;9958;33.196;-97.114;2022-12-29T08:50:54;2.22;;;2.03;;
19621;SDS011;9958;33.196;-97.114;2022-12-29T08:53:23;2.85;;;1.70;;
19621;SDS011;9958;33.196;-97.114;2022-12-29T08:55:54;2.72;;;1.95;;
19621;SDS011;9958;33.196;-97.114;2022-12-29T08:58:25;3.00;;;2.15;;
19621;SDS011;9958;33.196;-97.114;2022-12-29T09:00:54;2.42;;;1.98;;
19621;SDS011;9958;33.196;-97.114;2022-12-29T09:03:23;5.47;;;2.22;;
19621;SDS011;9958;33.196;-97.114;2022-12-29T09:05:52;2.58;;;2.20;;
19621;SDS011;9958;33.196;-97.114;2022-12-29T09:08:21;3.08;;;2.10;;
19621;SDS011;9958;33.196;-97.114;2022-12-29T09:10:50;2.42;;;2.00;;
19621;SDS011;9958;33.196;-97.114;2022-12-29T09:13:18;2.65;;;2.38;;
19621;SDS011;9958;33.196;-97.114;2022-12-29T09:15:48;4.25;;;2.42;;
19621;SDS011;9958;33.196;-97.114;2022-12-29T09:18:25;2.83;;;2.38;;
19621;SDS011;9958;33.196;-97.114;2022-12-29T09:20:55;4.07;;;2.53;;
19621;SDS011;9958;33.196;-97.114;2022-12-29T09:23:25;3.97;;;2.47;;
19621;SDS011;9958;33.196;-97.114;2022-12-29T09:25:54;3.33;;;2.85;;
19621;SDS011;9958;33.196;-97.114;2022-12-29T09:28:22;2.92;;;2.22;;
19621;SDS011;9958;33.196;-97.114;2022-12-29T09:30:52;2.70;;;2.38;;
19621;SDS011;9958;33.196;-97.114;2022-12-29T09:33:20;3.22;;;2.40;;
19621;SDS011;9958;33.196;-97.114;2022-12-29T09:35:50;4.32;;;2.75;;
19621;SDS011;9958;33.196;-97.114;2022-12-29T09:38:20;4.15;;;2.90;;
19621;SDS011;9958;33.196;-97.114;2022-12-29T09:40:49;4.88;;;2.55;;
19621;SDS011;9958;33.196;-97.114;2022-12-29T09:43:37;6.82;;;3.03;;
19621;SDS011;9958;33.196;-97.114;2022-12-29T09:46:23;5.97;;;2.65;;
19621;SDS011;9958;33.196;-97.114;2022-12-29T09:48:55;4.07;;;2.90;;
19621;SDS011;9958;33.196;-97.114;2022-12-29T09:51:35;3.85;;;2.92;;
19621;SDS011;9958;33.196;-97.114;2022-12-29T09:54:13;4.85;;;3.45;;
19621;SDS011;9958;33.196;-97.114;2022-12-29T09:56:51;3.00;;;2.53;;
19621;SDS011;9958;33.196;-97.114;2022-12-29T09:59:20;5.65;;;2.92;;
19621;SDS011;9958;33.196;-97.114;2022-12-29T10:01:56;7.50;;;3.33;;
19621;SDS011;9958;33.196;-97.114;2022-12-29T10:04:29;6.88;;;3.15;;
19621;SDS011;9958;33.196;-97.114;2022-12-29T10:06:59;4.50;;;3.10;;
19621;SDS011;9958;33.196;-97.114;2022-12-29T10:09:32;3.88;;;2.97;;
19621;SDS011;9958;33.196;-97.114;2022-12-29T10:12:11;5.55;;;2.95;;
19621;SDS011;9958;33.196;-97.114;2022-12-29T10:14:53;6.28;;;3.13;;
19621;SDS011;9958;33.196;-97.114;2022-12-29T10:17:34;3.78;;;3.03;;
19621;SDS011;9958;33.196;-97.114;2022-12-29T10:20:19;3.47;;;2.78;;
19621;SDS011;9958;33.196;-97.114;2022-12-29T10:25:47;3.50;;;3.20;;
19621;SDS011;9958;33.196;-97.114;2022-12-29T10:28:19;4.25;;;3.25;;
19621;SDS011;9958;33.196;-97.114;2022-12-29T10:30:49;4.40;;;3.47;;
19621;SDS011;9958;33.196;-97.114;2022-12-29T10:33:22;3.90;;;2.97;;
19621;SDS011;9958;33.196;-97.114;2022-12-29T10:35:55;3.42;;;3.00;;
19621;SDS011;9958;33.196;-97.114;2022-12-29T10:38:25;7.15;;;3.25;;
19621;SDS011;9958;33.196;-97.114;2022-12-29T10:40:57;6.03;;;3.33;;
19621;SDS011;9958;33.196;-97.114;2022-12-29T10:43:29;5.13;;;2.85;;
19621;SDS011;9958;33.196;-97.114;2022-12-29T10:46:04;4.72;;;3.08;;
19621;SDS011;9958;33.196;-97.114;2022-12-29T10:48:37;7.57;;;3.47;;
19621;SDS011;9958;33.196;-97.114;2022-12-29T10:51:05;3.97;;;3.05;;
19621;SDS011;9958;33.196;-97.114;2022-12-29T10:53:37;6.45;;;2.88;;
19621;SDS011;9958;33.196;-97.114;2022-12-29T10:56:15;4.38;;;3.25;;
19621;SDS011;9958;33.196;-97.114;2022-12-29T10:58:49;8.60;;;3.67;;
19621;SDS011;9958;33.196;-97.114;2022-12-29T11:01:18;6.35;;;3.00;;
19621;SDS011;9958;33.196;-97.114;2022-12-29T11:03:53;3.10;;;2.80;;
19621;SDS011;9958;33.196;-97.114;2022-12-29T11:06:30;3.58;;;3.28;;
19621;SDS011;9958;33.196;-97.114;2022-12-29T11:09:01;5.60;;;3.35;;
19621;SDS011;9958;33.196;-97.114;2022-12-29T11:11:37;5.90;;;3.30;;
19621;SDS011;9958;33.196;-97.114;2022-12-29T11:14:10;4.82;;;3.40;;
19621;SDS011;9958;33.196;-97.114;2022-12-29T11:16:40;6.57;;;3.10;;
19621;SDS011;9958;33.196;-97.114;2022-12-29T11:19:22;3.97;;;3.40;;
19621;SDS011;9958;33.196;-97.114;2022-12-29T11:21:56;5.03;;;3.35;;
19621;SDS011;9958;33.196;-97.114;2022-12-29T11:24:43;4.00;;;2.97;;
19621;SDS011;9958;33.196;-97.114;2022-12-29T11:27:14;4.15;;;3.55;;
19621;SDS011;9958;33.196;-97.114;2022-12-29T11:29:45;3.85;;;3.05;;
19621;SDS011;9958;33.196;-97.114;2022-12-29T11:32:17;3.95;;;3.55;;
19621;SDS011;9958;33.196;-97.114;2022-12-29T11:34:48;4.15;;;3.35;;
19621;SDS011;9958;33.196;-97.114;2022-12-29T11:37:16;6.63;;;3.78;;
19621;SDS011;9958;33.196;-97.114;2022-12-29T11:39:49;5.38;;;3.78;;
19621;SDS011;9958;33.196;-97.114;2022-12-29T11:42:20;3.72;;;3.28;;
19621;SDS011;9958;33.196;-97.114;2022-12-29T11:44:55;6.38;;;3.60;;
19621;SDS011;9958;33.196;-97.114;2022-12-29T11:47:30;4.63;;;3.70;;
19621;SDS011;9958;33.196;-97.114;2022-12-29T11:50:03;7.22;;;3.83;;
19621;SDS011;9958;33.196;-97.114;2022-12-29T11:52:34;5.88;;;4.07;;
19621;SDS011;9958;33.196;-97.114;2022-12-29T11:55:05;5.10;;;3.53;;
19621;SDS011;9958;33.196;-97.114;2022-12-29T11:57:45;5.35;;;3.92;;
19621;SDS011;9958;33.196;-97.114;2022-12-29T12:00:15;4.50;;;3.58;;
19621;SDS011;9958;33.196;-97.114;2022-12-29T12:02:49;4.97;;;3.60;;
19621;SDS011;9958;33.196;-97.114;2022-12-29T12:05:29;3.88;;;3.50;;
19621;SDS011;9958;33.196;-97.114;2022-12-29T12:08:07;6.20;;;3.97;;
19621;SDS011;9958;33.196;-97.114;2022-12-29T12:10:41;8.35;;;4.07;;
19621;SDS011;9958;33.196;-97.114;2022-12-29T12:13:20;4.97;;;3.97;;
19621;SDS011;9958;33.196;-97.114;2022-12-29T12:15:54;6.13;;;3.78;;
19621;SDS011;9958;33.196;-97.114;2022-12-29T12:18:30;5.45;;;4.40;;
19621;SDS011;9958;33.196;-97.114;2022-12-29T12:21:08;4.50;;;4.10;;
19621;SDS011;9958;33.196;-97.114;2022-12-29T12:23:44;8.98;;;4.03;;
19621;SDS011;9958;33.196;-97.114;2022-12-29T12:26:28;4.50;;;4.10;;
19621;SDS011;9958;33.196;-97.114;2022-12-29T12:29:03;5.00;;;4.32;;
19621;SDS011;9958;33.196;-97.114;2022-12-29T12:31:41;5.72;;;4.18;;
19621;SDS011;9958;33.196;-97.114;2022-12-29T12:34:15;5.05;;;4.28;;
19621;SDS011;9958;33.196;-97.114;2022-12-29T12:36:53;5.07;;;3.92;;
19621;SDS011;9958;33.196;-97.114;2022-12-29T12:39:36;5.40;;;4.57;;
19621;SDS011;9958;33.196;-97.114;2022-12-29T12:42:17;6.75;;;4.30;;
19621;SDS011;9958;33.196;-97.114;2022-12-29T12:44:58;5.47;;;4.30;;
19621;SDS011;9958;33.196;-97.114;2022-12-29T12:47:41;8.85;;;4.47;;
19621;SDS011;9958;33.196;-97.114;2022-12-29T12:50:27;7.60;;;4.65;;
19621;SDS011;9958;33.196;-97.114;2022-12-29T12:53:16;6.68;;;4.53;;
19621;SDS011;9958;33.196;-97.114;2022-12-29T12:56:00;9.77;;;4.90;;
19621;SDS011;9958;33.196;-97.114;2022-12-29T12:58:41;5.22;;;4.65;;
19621;SDS011;9958;33.196;-97.114;2022-12-29T13:01:24;8.13;;;5.13;;
19621;SDS011;9958;33.196;-97.114;2022-12-29T13:04:12;8.52;;;4.68;;
19621;SDS011;9958;33.196;-97.114;2022-12-29T13:06:56;6.60;;;4.50;;
19621;SDS011;9958;33.196;-97.114;2022-12-29T13:09:40;7.25;;;5.40;;
19621;SDS011;9958;33.196;-97.114;2022-12-29T13:12:20;8.13;;;5.15;;
19621;SDS011;9958;33.196;-97.114;2022-12-29T13:15:00;6.72;;;5.00;;
19621;SDS011;9958;33.196;-97.114;2022-12-29T13:17:39;6.82;;;5.22;;
19621;SDS011;9958;33.196;-97.114;2022-12-29T13:20:18;7.80;;;5.10;;
19621;SDS011;9958;33.196;-97.114;2022-12-29T13:23:01;7.55;;;5.40;;
19621;SDS011;9958;33.196;-97.114;2022-12-29T13:25:37;6.03;;;5.32;;
19621;SDS011;9958;33.196;-97.114;2022-12-29T13:28:12;6.30;;;4.82;;
19621;SDS011;9958;33.196;-97.114;2022-12-29T13:30:50;6.65;;;4.80;;
19621;SDS011;9958;33.196;-97.114;2022-12-29T13:33:27;7.03;;;5.20;;
19621;SDS011;9958;33.196;-97.114;2022-12-29T13:36:04;8.25;;;5.03;;
19621;SDS011;9958;33.196;-97.114;2022-12-29T13:38:37;6.45;;;4.72;;
19621;SDS011;9958;33.196;-97.114;2022-12-29T13:41:12;6.55;;;5.38;;
19621;SDS011;9958;33.196;-97.114;2022-12-29T13:43:45;8.55;;;5.78;;
19621;SDS011;9958;33.196;-97.114;2022-12-29T13:46:18;8.60;;;5.65;;
19621;SDS011;9958;33.196;-97.114;2022-12-29T13:48:49;8.45;;;5.72;;
19621;SDS011;9958;33.196;-97.114;2022-12-29T13:51:21;8.90;;;5.60;;
19621;SDS011;9958;33.196;-97.114;2022-12-29T13:53:55;9.25;;;6.03;;
19621;SDS011;9958;33.196;-97.114;2022-12-29T13:56:35;8.90;;;5.50;;
19621;SDS011;9958;33.196;-97.114;2022-12-29T13:59:10;8.38;;;5.97;;
19621;SDS011;9958;33.196;-97.114;2022-12-29T14:01:47;8.50;;;5.55;;
19621;SDS011;9958;33.196;-97.114;2022-12-29T14:04:22;9.52;;;6.28;;
19621;SDS011;9958;33.196;-97.114;2022-12-29T14:07:02;8.23;;;5.78;;
19621;SDS011;9958;33.196;-97.114;2022-12-29T14:09:39;10.40;;;5.40;;
19621;SDS011;9958;33.196;-97.114;2022-12-29T14:15:06;11.05;;;5.47;;
19621;SDS011;9958;33.196;-97.114;2022-12-29T14:17:43;7.60;;;5.30;;
19621;SDS011;9958;33.196;-97.114;2022-12-29T14:20:26;9.18;;;5.90;;
19621;SDS011;9958;33.196;-97.114;2022-12-29T14:22:56;9.07;;;5.70;;
19621;SDS011;9958;33.196;-97.114;2022-12-29T14:28:40;8.23;;;5.90;;
19621;SDS011;9958;33.196;-97.114;2022-12-29T14:36:57;9.63;;;5.57;;
19621;SDS011;9958;33.196;-97.114;2022-12-29T14:39:29;8.52;;;5.53;;
19621;SDS011;9958;33.196;-97.114;2022-12-29T14:42:03;11.23;;;5.90;;
19621;SDS011;9958;33.196;-97.114;2022-12-29T14:44:35;8.95;;;5.10;;
19621;SDS011;9958;33.196;-97.114;2022-12-29T14:47:16;6.97;;;5.18;;
19621;SDS011;9958;33.196;-97.114;2022-12-29T14:49:47;9.45;;;5.78;;
19621;SDS011;9958;33.196;-97.114;2022-12-29T14:52:17;8.43;;;6.25;;
19621;SDS011;9958;33.196;-97.114;2022-12-29T14:54:48;7.32;;;5.15;;
19621;SDS011;9958;33.196;-97.114;2022-12-29T14:57:20;7.68;;;5.32;;
19621;SDS011;9958;33.196;-97.114;2022-12-29T14:59:54;8.25;;;5.38;;
19621;SDS011;9958;33.196;-97.114;2022-12-29T15:02:31;6.90;;;5.20;;
19621;SDS011;9958;33.196;-97.114;2022-12-29T15:05:04;6.60;;;5.28;;
19621;SDS011;9958;33.196;-97.114;2022-12-29T15:07:42;8.00;;;5.55;;
19621;SDS011;9958;33.196;-97.114;2022-12-29T15:10:12;7.05;;;5.00;;
19621;SDS011;9958;33.196;-97.114;2022-12-29T15:12:46;6.03;;;5.20;;
19621;SDS011;9958;33.196;-97.114;2022-12-29T15:15:21;7.75;;;5.40;;
19621;SDS011;9958;33.196;-97.114;2022-12-29T15:17:51;8.60;;;5.38;;
19621;SDS011;9958;33.196;-97.114;2022-12-29T15:20:21;6.88;;;4.95;;
19621;SDS011;9958;33.196;-97.114;2022-12-29T15:22:54;6.50;;;5.05;;
19621;SDS011;9958;33.196;-97.114;2022-12-29T15:25:24;7.68;;;5.38;;